Time;durP1;ratioP1;P1;durP2;ratioP2;P2;SDS_P1;SDS_P2;PMS_P1;PMS_P2;Temp;Humidity;BMP_temperature;BMP_pressure;BME280_temperature;BME280_humidity;BME280_pressure;Samples;Min_cycle;Max_cycle;Signal;HPM_P1;HPM_P2
2021/09/18 00:00:15;;;;;;;10.10;6.17;;;;;;;12.73;89.91;96229.69;4991002;28;20614;-69
2021/09/18 00:02:41;;;;;;;9.17;5.43;;;;;;;12.47;88.66;96232.06;4991270;28;20215;-69
2021/09/18 00:05:09;;;;;;;7.70;4.83;;;;;;;12.46;88.33;96243.69;4991663;28;20207;-69
2021/09/18 00:07:35;;;;;;;9.27;6.77;;;;;;;12.17;90.29;96229.75;4991325;28;20199;-69
2021/09/18 00:10:02;;;;;;;9.37;5.90;;;;;;;12.20;90.26;96224.88;4990980;28;20682;-69
2021/09/18 00:12:28;;;;;;;7.87;5.60;;;;;;;12.12;90.33;96226.00;4990135;28;20778;-69
2021/09/18 00:14:57;;;;;;;9.50;5.83;;;;;;;12.24;90.79;96226.19;4991069;28;20203;-69
2021/09/18 00:17:26;;;;;;;9.40;6.50;;;;;;;12.18;91.11;96221.63;4990869;28;20227;-69
2021/09/18 00:19:52;;;;;;;11.80;6.97;;;;;;;12.12;92.52;96224.22;4991087;28;20199;-69
2021/09/18 00:22:19;;;;;;;15.53;8.50;;;;;;;12.21;92.03;96223.09;4991026;28;20227;-69
2021/09/18 00:24:46;;;;;;;19.63;9.00;;;;;;;12.01;93.93;96222.03;4990582;28;20573;-69
2021/09/18 00:27:12;;;;;;;13.63;7.97;;;;;;;12.05;93.39;96219.84;4990397;28;20540;-69
2021/09/18 00:29:39;;;;;;;12.87;7.40;;;;;;;12.27;90.41;96228.44;4991087;28;20221;-69
2021/09/18 00:32:07;;;;;;;9.47;6.37;;;;;;;12.54;88.06;96224.25;4990721;28;20227;-69
2021/09/18 00:34:33;;;;;;;8.77;6.27;;;;;;;12.41;87.77;96222.28;4990355;28;20203;-69
2021/09/18 00:37:00;;;;;;;9.73;6.50;;;;;;;12.47;87.20;96226.78;4990545;28;20223;-69
2021/09/18 00:39:26;;;;;;;9.60;5.83;;;;;;;12.35;86.95;96223.03;4990586;28;20202;-69
2021/09/18 00:41:53;;;;;;;12.13;7.00;;;;;;;12.13;89.56;96220.56;4990107;28;20579;-69
2021/09/18 00:46:50;;;;;;;10.77;7.20;;;;;;;12.40;88.53;96223.28;5008135;28;20674;-72
2021/09/18 00:49:18;;;;;;;11.43;6.53;;;;;;;12.51;87.13;96224.59;5009741;28;20269;-72
2021/09/18 00:51:45;;;;;;;9.67;6.77;;;;;;;12.25;88.27;96214.56;5009756;28;20203;-73
2021/09/18 00:54:13;;;;;;;11.27;7.80;;;;;;;12.12;90.55;96218.09;5009249;28;20218;-72
2021/09/18 00:56:40;;;;;;;12.17;7.03;;;;;;;12.27;90.33;96222.31;5009587;28;20682;-72
2021/09/18 00:59:07;;;;;;;9.33;6.30;;;;;;;12.04;90.61;96223.50;5009446;28;20202;-72
2021/09/18 01:01:33;;;;;;;12.17;7.77;;;;;;;12.26;89.57;96218.88;5009880;28;20214;-72
2021/09/18 01:04:01;;;;;;;11.23;7.60;;;;;;;12.40;89.61;96225.94;5010105;28;20229;-72
2021/09/18 01:06:29;;;;;;;14.43;8.13;;;;;;;12.57;89.42;96222.00;5009874;28;20202;-73
2021/09/18 01:08:58;;;;;;;10.67;6.93;;;;;;;12.31;89.35;96224.41;5008984;28;20203;-73
2021/09/18 01:11:25;;;;;;;9.47;6.27;;;;;;;12.11;88.46;96219.13;5009684;28;20237;-73
2021/09/18 01:13:52;;;;;;;10.63;6.63;;;;;;;11.83;89.04;96223.44;5009559;28;20222;-73
2021/09/18 01:16:20;;;;;;;9.70;6.30;;;;;;;12.18;87.58;96221.63;5009688;28;20202;-73
2021/09/18 01:18:46;;;;;;;10.30;6.70;;;;;;;12.01;88.61;96223.88;5009007;28;20205;-73
2021/09/18 01:21:13;;;;;;;11.23;6.40;;;;;;;11.96;88.19;96219.13;5009779;28;20202;-73
2021/09/18 01:23:41;;;;;;;9.20;6.83;;;;;;;12.14;88.81;96226.66;5008425;28;20440;-72
2021/09/18 01:26:08;;;;;;;10.90;7.10;;;;;;;11.88;90.07;96226.34;5009213;28;20220;-72
2021/09/18 01:28:35;;;;;;;11.63;7.93;;;;;;;11.88;90.54;96226.34;5010029;28;20202;-72
2021/09/18 01:31:02;;;;;;;10.90;6.80;;;;;;;11.98;89.77;96229.53;5009476;28;20209;-72
2021/09/18 01:33:28;;;;;;;10.37;6.70;;;;;;;12.09;88.28;96223.75;5009586;28;20218;-72
2021/09/18 01:35:55;;;;;;;10.73;6.50;;;;;;;11.97;88.28;96219.97;5009277;28;20199;-72
2021/09/18 01:38:22;;;;;;;10.43;6.30;;;;;;;12.05;87.62;96222.50;5009573;28;20233;-72
2021/09/18 01:40:50;;;;;;;8.73;5.97;;;;;;;11.95;88.65;96222.81;5009430;28;20515;-73
2021/09/18 01:43:17;;;;;;;9.37;5.93;;;;;;;11.65;89.48;96220.38;5008602;28;20658;-72
2021/09/18 01:45:44;;;;;;;9.47;6.00;;;;;;;11.66;89.22;96228.13;5009145;28;20215;-73
2021/09/18 01:48:12;;;;;;;8.97;5.80;;;;;;;11.86;88.94;96225.72;5009209;28;20662;-72
2021/09/18 01:50:45;;;;;;;11.07;6.87;;;;;;;12.01;89.35;96223.88;5009282;28;20202;-72
2021/09/18 01:53:11;;;;;;;12.60;7.17;;;;;;;11.73;89.97;96234.28;5009107;28;20280;-72
2021/09/18 01:55:38;;;;;;;9.07;6.07;;;;;;;11.49;90.13;96236.38;5009156;28;20745;-72
2021/09/18 01:58:06;;;;;;;9.97;6.43;;;;;;;11.87;90.13;96225.53;5009058;28;20832;-72
2021/09/18 02:00:37;;;;;;;12.00;7.57;;;;;;;11.96;91.02;96220.97;5009287;28;20198;-73
2021/09/18 02:03:04;;;;;;;10.97;7.20;;;;;;;11.92;90.27;96219.69;5008901;28;20562;-71
2021/09/18 02:05:31;;;;;;;8.90;6.20;;;;;;;11.69;89.94;96219.00;5009536;28;20527;-70
2021/09/18 02:07:57;;;;;;;8.67;6.30;;;;;;;11.80;88.31;96219.34;5008946;28;20198;-71
2021/09/18 02:10:26;;;;;;;7.97;5.70;;;;;;;11.74;89.02;96211.38;5008902;28;20210;-70
2021/09/18 02:12:53;;;;;;;15.63;6.70;;;;;;;11.51;90.53;96223.00;5009017;28;20206;-70
2021/09/18 02:15:23;;;;;;;11.37;6.97;;;;;;;11.57;90.97;96218.66;5009091;28;20226;-72
2021/09/18 02:17:50;;;;;;;13.83;7.80;;;;;;;11.47;92.14;96209.34;5008867;28;20218;-71
2021/09/18 02:20:19;;;;;;;16.27;8.50;;;;;;;11.61;92.08;96209.38;5009117;28;20202;-70
2021/09/18 02:22:46;;;;;;;15.27;7.07;;;;;;;11.78;89.85;96213.44;5008703;28;20198;-70
2021/09/18 02:25:14;;;;;;;7.30;5.37;;;;;;;11.47;88.73;96217.28;5008623;28;20219;-71
2021/09/18 02:27:41;;;;;;;7.50;5.37;;;;;;;11.21;89.61;96214.25;5009023;28;20195;-70
2021/09/18 02:30:10;;;;;;;8.40;5.60;;;;;;;11.46;89.15;96215.63;5008801;28;20191;-71
2021/09/18 02:32:38;;;;;;;12.30;6.07;;;;;;;11.62;89.36;96216.28;5008949;28;20206;-71
2021/09/18 02:35:06;;;;;;;11.20;6.47;;;;;;;11.51;89.99;96218.56;5009084;28;20225;-71
2021/09/18 02:37:32;;;;;;;10.50;6.77;;;;;;;11.54;89.70;96220.84;5012445;28;20234;-71
2021/09/18 02:39:59;;;;;;;9.67;6.03;;;;;;;11.57;88.44;96228.41;5012285;28;20209;-70
2021/09/18 02:42:25;;;;;;;8.73;6.27;;;;;;;11.56;88.33;96210.94;5012071;28;20206;-71
2021/09/18 02:44:52;;;;;;;10.03;6.63;;;;;;;11.64;88.78;96208.19;5011910;28;20254;-71
2021/09/18 02:47:19;;;;;;;9.30;5.97;;;;;;;11.75;87.30;96205.09;5012562;28;20203;-70
2021/09/18 02:49:47;;;;;;;9.20;5.70;;;;;;;11.67;88.08;96207.81;5012059;28;20198;-71
2021/09/18 02:52:13;;;;;;;11.03;6.50;;;;;;;11.44;89.29;96209.69;5012305;28;20198;-71
2021/09/18 02:54:40;;;;;;;8.57;5.80;;;;;;;11.66;87.64;96201.72;5011803;28;20218;-70
2021/09/18 02:57:06;;;;;;;7.20;5.10;;;;;;;11.61;86.06;96198.00;5011415;28;20423;-71
2021/09/18 02:59:33;;;;;;;8.57;5.13;;;;;;;11.62;85.80;96194.34;5010956;28;20514;-71
2021/09/18 03:01:59;;;;;;;8.10;5.30;;;;;;;11.55;85.85;96193.44;5011999;28;20209;-71
2021/09/18 03:04:26;;;;;;;6.87;4.97;;;;;;;11.45;85.78;96203.44;5011757;28;20222;-71
2021/09/18 03:06:54;;;;;;;10.43;5.63;;;;;;;11.43;86.62;96197.53;5011366;28;20207;-71
2021/09/18 03:09:20;;;;;;;7.07;5.10;;;;;;;11.10;88.31;96209.44;5011933;28;20209;-70
2021/09/18 03:11:47;;;;;;;6.13;4.73;;;;;;;11.04;88.02;96202.25;5012160;28;20511;-71
2021/09/18 03:14:13;;;;;;;8.83;5.50;;;;;;;11.22;87.28;96202.69;5011079;28;20702;-71
2021/09/18 03:16:40;;;;;;;7.70;5.30;;;;;;;11.34;87.21;96203.06;5011768;28;20202;-70
2021/09/18 03:19:06;;;;;;;8.10;5.67;;;;;;;11.26;87.42;96203.97;5011751;28;20221;-71
2021/09/18 03:21:32;;;;;;;9.83;5.20;;;;;;;11.25;87.78;96205.00;5011431;28;20717;-71
2021/09/18 03:24:00;;;;;;;7.80;5.43;;;;;;;11.32;87.73;96200.63;5011292;28;20435;-71
2021/09/18 03:26:27;;;;;;;8.40;5.30;;;;;;;11.21;87.12;96198.41;5011317;28;20207;-70
2021/09/18 03:28:54;;;;;;;9.60;5.20;;;;;;;11.28;87.59;96207.25;5011511;28;20213;-71
2021/09/18 03:31:20;;;;;;;8.00;5.40;;;;;;;11.42;87.29;96202.97;5011310;28;20577;-71
2021/09/18 03:33:47;;;;;;;9.90;5.70;;;;;;;11.31;86.60;96204.25;5011012;28;20257;-71
2021/09/18 03:36:13;;;;;;;7.20;5.20;;;;;;;11.41;86.35;96210.06;5011439;28;20577;-73
2021/09/18 03:38:40;;;;;;;12.73;6.00;;;;;;;11.30;87.06;96200.00;5011074;28;20224;-73
2021/09/18 03:41:08;;;;;;;11.27;6.13;;;;;;;11.21;88.28;96203.69;5011055;28;21050;-73
2021/09/18 03:43:34;;;;;;;7.43;5.23;;;;;;;11.08;87.93;96206.16;5010985;28;20226;-73
2021/09/18 03:46:01;;;;;;;8.17;5.13;;;;;;;11.14;86.65;96200.16;5011067;28;20210;-73
2021/09/18 03:48:27;;;;;;;7.80;5.07;;;;;;;11.11;87.40;96200.53;5010033;28;20198;-73
2021/09/18 03:50:54;;;;;;;8.37;5.37;;;;;;;11.00;88.59;96192.25;5010911;28;20642;-73
2021/09/18 03:53:20;;;;;;;7.87;5.90;;;;;;;10.99;88.98;96201.16;5011005;28;20210;-73
2021/09/18 03:55:47;;;;;;;7.03;5.07;;;;;;;11.13;87.86;96203.78;5010951;28;20206;-73
2021/09/18 03:58:15;;;;;;;9.27;4.87;;;;;;;11.30;87.14;96194.72;5011136;28;20234;-72
2021/09/18 04:00:41;;;;;;;6.07;4.67;;;;;;;11.18;86.07;96195.34;5010901;28;20199;-73
2021/09/18 04:03:08;;;;;;;8.87;4.30;;;;;;;11.22;85.95;96200.06;5010430;28;20666;-73
2021/09/18 04:05:38;;;;;;;6.17;4.13;;;;;;;11.16;85.16;96199.97;5011157;28;20227;-73
2021/09/18 04:08:06;;;;;;;9.43;4.63;;;;;;;11.23;84.78;96204.34;5011132;28;20290;-72
2021/09/18 04:10:32;;;;;;;6.20;4.60;;;;;;;10.99;86.30;96203.78;5010759;28;20382;-72
2021/09/18 04:12:59;;;;;;;10.13;5.60;;;;;;;11.00;85.94;96208.88;5010460;28;20205;-72
2021/09/18 04:15:26;;;;;;;10.40;5.30;;;;;;;11.14;86.55;96208.06;5010541;28;20237;-73
2021/09/18 04:17:53;;;;;;;8.00;5.67;;;;;;;10.84;87.48;96218.75;5010641;28;20223;-73
2021/09/18 04:20:20;;;;;;;7.43;4.70;;;;;;;10.59;88.28;96216.50;5010677;28;20661;-73
2021/09/18 04:22:46;;;;;;;5.50;4.20;;;;;;;10.59;87.32;96219.16;5010118;28;20202;-72
2021/09/18 04:25:13;;;;;;;5.47;4.10;;;;;;;10.76;86.65;96210.13;5010506;28;20233;-72
2021/09/18 04:27:39;;;;;;;5.50;4.00;;;;;;;10.84;85.49;96212.69;5010437;28;20193;-73
2021/09/18 04:30:07;;;;;;;6.83;4.10;;;;;;;10.95;85.66;96215.69;5010338;28;20213;-73
2021/09/18 04:32:35;;;;;;;5.87;4.00;;;;;;;11.01;85.49;96215.78;5010644;28;20206;-73
2021/09/18 04:35:01;;;;;;;5.77;4.37;;;;;;;10.86;85.76;96216.78;5010296;28;20218;-73
2021/09/18 04:37:28;;;;;;;7.17;5.00;;;;;;;10.89;85.65;96216.41;5010300;28;20199;-72
2021/09/18 04:39:54;;;;;;;6.17;4.47;;;;;;;10.93;85.69;96223.78;5010125;28;20208;-72
2021/09/18 04:42:21;;;;;;;7.10;4.53;;;;;;;10.79;86.14;96220.28;5010492;28;20209;-73
2021/09/18 04:44:47;;;;;;;5.77;4.37;;;;;;;10.80;85.43;96224.56;5009651;28;20588;-73
2021/09/18 04:47:14;;;;;;;7.80;4.73;;;;;;;10.74;86.19;96228.72;5009646;28;20205;-73
2021/09/18 04:49:42;;;;;;;7.20;4.83;;;;;;;11.02;86.24;96227.16;5010494;28;20199;-73
2021/09/18 04:52:08;;;;;;;6.57;4.87;;;;;;;10.74;86.81;96226.09;5010206;28;20209;-73
2021/09/18 04:54:35;;;;;;;8.60;4.77;;;;;;;10.62;86.98;96224.06;5009545;28;20230;-73
2021/09/18 04:57:01;;;;;;;8.30;4.93;;;;;;;10.56;87.24;96224.78;5009514;28;20214;-73
2021/09/18 04:59:28;;;;;;;12.67;6.03;;;;;;;10.56;88.17;96230.03;5009608;28;20735;-73
2021/09/18 05:01:54;;;;;;;8.33;5.67;;;;;;;10.48;89.35;96232.75;5009930;28;20577;-73
2021/09/18 05:04:21;;;;;;;7.17;5.23;;;;;;;10.73;87.29;96231.53;5009793;28;20233;-73
2021/09/18 05:06:49;;;;;;;7.67;5.07;;;;;;;10.77;86.67;96230.19;5009807;28;20584;-73
2021/09/18 05:09:15;;;;;;;8.30;4.53;;;;;;;10.65;86.24;96231.63;5009699;28;20210;-73
2021/09/18 05:11:42;;;;;;;7.40;4.50;;;;;;;10.78;85.29;96237.09;5009450;28;20199;-73
2021/09/18 05:14:08;;;;;;;6.10;4.30;;;;;;;10.60;86.30;96232.16;5009656;28;20215;-73
2021/09/18 05:16:35;;;;;;;6.47;4.20;;;;;;;10.61;86.19;96240.88;5009895;28;20202;-73
2021/09/18 05:19:01;;;;;;;6.63;4.50;;;;;;;10.65;85.86;96239.53;5009224;28;20592;-73
2021/09/18 05:21:28;;;;;;;8.00;4.73;;;;;;;10.62;86.38;96240.69;5009402;28;20206;-73
2021/09/18 05:23:55;;;;;;;8.73;4.63;;;;;;;10.52;88.83;96244.56;5009297;28;20226;-73
2021/09/18 05:26:22;;;;;;;7.90;4.67;;;;;;;10.07;90.12;96241.09;5009697;28;20210;-73
2021/09/18 05:28:48;;;;;;;7.30;4.33;;;;;;;10.06;90.73;96247.38;5009534;28;20206;-73
2021/09/18 05:31:15;;;;;;;10.83;5.33;;;;;;;10.37;90.17;96246.31;5009381;28;20685;-73
2021/09/18 05:33:41;;;;;;;10.43;5.17;;;;;;;10.48;89.41;96253.81;5009464;28;20310;-73
2021/09/18 05:36:08;;;;;;;8.63;5.37;;;;;;;10.67;89.73;96250.72;5009269;28;20203;-73
2021/09/18 05:38:34;;;;;;;11.70;6.00;;;;;;;10.78;90.06;96258.19;5009498;28;20226;-72
2021/09/18 05:41:02;;;;;;;7.67;5.60;;;;;;;10.95;89.75;96253.41;5009195;28;20203;-72
2021/09/18 05:43:29;;;;;;;8.97;5.30;;;;;;;10.92;89.41;96255.63;5009625;28;20226;-73
2021/09/18 05:45:55;;;;;;;10.27;5.30;;;;;;;11.10;89.59;96256.91;5008985;28;20666;-73
2021/09/18 05:48:22;;;;;;;9.70;6.30;;;;;;;11.14;89.39;96252.09;5009982;28;20198;-73
2021/09/18 05:50:48;;;;;;;17.13;5.73;;;;;;;11.21;89.73;96253.81;5009603;28;20237;-72
2021/09/18 05:53:15;;;;;;;11.23;6.40;;;;;;;11.04;92.01;96254.97;5008839;28;20209;-72
2021/09/18 05:55:41;;;;;;;10.23;5.60;;;;;;;11.27;91.14;96250.47;5008842;28;20586;-72
2021/09/18 05:58:09;;;;;;;11.30;6.00;;;;;;;11.40;91.11;96250.66;5009364;28;20230;-72
2021/09/18 06:00:36;;;;;;;8.70;5.70;;;;;;;11.34;91.37;96253.19;5009278;28;20787;-73
2021/09/18 06:03:03;;;;;;;11.87;6.07;;;;;;;11.49;91.58;96252.19;5008614;28;20203;-72
2021/09/18 06:05:29;;;;;;;10.13;5.87;;;;;;;11.52;91.42;96254.53;5009389;28;20206;-72
2021/09/18 06:07:56;;;;;;;11.17;6.00;;;;;;;11.37;92.05;96253.66;5008980;28;20206;-73
2021/09/18 06:10:22;;;;;;;9.10;5.90;;;;;;;11.52;92.53;96259.81;5009825;28;20207;-72
2021/09/18 06:12:49;;;;;;;11.80;5.37;;;;;;;11.53;92.61;96261.41;5012987;28;20573;-73
2021/09/18 06:15:17;;;;;;;11.33;5.93;;;;;;;11.81;92.74;96262.41;5012933;28;20222;-72
2021/09/18 06:17:43;;;;;;;9.63;5.80;;;;;;;11.82;92.19;96266.69;5012406;28;20690;-72
2021/09/18 06:20:11;;;;;;;10.63;6.67;;;;;;;12.04;91.39;96260.47;5013302;28;20722;-73
2021/09/18 06:22:37;;;;;;;10.87;6.80;;;;;;;11.95;91.51;96259.78;5012624;28;20209;-73
2021/09/18 06:25:05;;;;;;;11.77;5.77;;;;;;;12.06;90.90;96261.13;5012520;28;20576;-72
2021/09/18 06:27:32;;;;;;;10.43;5.83;;;;;;;12.10;90.57;96265.81;5012484;28;20202;-72
2021/09/18 06:29:58;;;;;;;9.67;6.40;;;;;;;12.05;91.34;96262.09;5012844;28;20198;-72
2021/09/18 06:32:26;;;;;;;10.53;5.87;;;;;;;12.25;92.26;96267.41;5012914;28;20213;-72
2021/09/18 06:34:53;;;;;;;9.17;6.30;;;;;;;12.08;93.21;96270.50;5012119;28;20261;-72
2021/09/18 06:37:19;;;;;;;10.10;6.13;;;;;;;12.21;93.82;96266.16;5012467;28;20211;-72
2021/09/18 06:39:46;;;;;;;11.60;6.60;;;;;;;12.30;93.94;96270.31;5012315;28;20222;-72
2021/09/18 06:42:12;;;;;;;14.20;7.07;;;;;;;12.40;94.38;96268.22;5012299;28;20215;-73
2021/09/18 06:47:05;;;;;;;12.73;7.73;;;;;;;12.59;94.03;96275.53;5010880;23;20231;-88
2021/09/18 06:49:33;;;;;;;15.47;8.77;;;;;;;12.74;94.14;96276.28;4987270;28;20213;-88
2021/09/18 06:51:59;;;;;;;16.83;9.53;;;;;;;12.66;95.05;96281.69;4987117;28;20203;-88
2021/09/18 06:54:26;;;;;;;19.93;11.80;;;;;;;12.74;94.71;96284.22;4986460;28;20207;-88
2021/09/18 06:56:52;;;;;;;21.20;12.17;;;;;;;12.74;94.32;96280.75;4987232;28;20222;-87
2021/09/18 06:59:19;;;;;;;20.33;11.53;;;;;;;12.81;94.59;96280.63;4986626;28;20432;-87
2021/09/18 07:01:45;;;;;;;17.63;10.83;;;;;;;12.94;93.23;96275.47;4987141;28;20195;-88
2021/09/18 07:04:12;;;;;;;17.43;11.23;;;;;;;13.00;93.31;96280.00;4986344;28;20664;-88
2021/09/18 07:06:40;;;;;;;18.77;11.18;;;;;;;13.34;93.09;96281.91;4986125;28;20204;-87
2021/09/18 07:09:06;;;;;;;15.32;10.43;;;;;;;13.12;94.22;96283.78;4986585;28;20202;-87
2021/09/18 07:11:33;;;;;;;17.30;10.90;;;;;;;13.21;94.25;96284.44;4986628;28;20203;-87
2021/09/18 07:13:59;;;;;;;20.38;11.00;;;;;;;13.30;93.95;96285.94;4986546;28;20207;-87
2021/09/18 07:16:26;;;;;;;22.73;11.85;;;;;;;13.41;94.24;96279.09;4986716;28;20207;-87
2021/09/18 07:18:52;;;;;;;19.88;11.93;;;;;;;13.44;93.40;96278.72;4986698;28;20227;-87
2021/09/18 07:21:19;;;;;;;22.30;11.68;;;;;;;13.56;92.83;96279.81;4986637;28;20802;-87
2021/09/18 07:23:46;;;;;;;21.43;11.17;;;;;;;13.76;92.26;96286.06;4986006;28;20203;-87
2021/09/18 07:26:13;;;;;;;23.95;12.38;;;;;;;13.71;92.50;96285.00;4986579;28;20214;-88
2021/09/18 07:28:39;;;;;;;19.80;11.43;;;;;;;13.81;93.64;96291.59;4986553;28;20563;-87
2021/09/18 07:31:06;;;;;;;21.98;12.40;;;;;;;14.03;93.54;96285.19;4987280;28;20199;-88
2021/09/18 07:33:32;;;;;;;25.27;12.95;;;;;;;14.08;92.67;96288.09;4986958;28;20210;-87
2021/09/18 07:35:59;;;;;;;26.08;13.73;;;;;;;14.25;92.70;96286.75;4987044;28;20196;-87
2021/09/18 07:38:26;;;;;;;24.15;13.40;;;;;;;14.43;92.97;96284.34;4986650;28;20231;-88
2021/09/18 07:40:55;;;;;;;19.23;12.35;;;;;;;14.59;93.09;96291.94;4986921;28;20202;-88
2021/09/18 07:43:21;;;;;;;23.02;13.07;;;;;;;14.62;93.56;96291.56;4987040;28;20294;-88
2021/09/18 07:45:48;;;;;;;17.13;10.88;;;;;;;14.38;92.98;96278.84;4986820;28;20215;-88
2021/09/18 07:48:15;;;;;;;18.45;10.52;;;;;;;14.23;94.35;96284.28;4986731;28;20228;-87
2021/09/18 07:50:41;;;;;;;14.82;9.93;;;;;;;14.18;95.26;96284.06;4986818;28;20283;-87
2021/09/18 07:53:08;;;;;;;16.65;9.57;;;;;;;14.40;94.12;96282.91;4986110;28;20199;-88
2021/09/18 07:55:35;;;;;;;14.63;9.55;;;;;;;14.30;95.28;96279.00;4987272;28;20215;-89
2021/09/18 07:58:03;;;;;;;18.30;9.85;;;;;;;14.58;94.93;96280.53;4986486;28;20219;-87
2021/09/18 08:00:30;;;;;;;15.73;10.70;;;;;;;14.59;94.25;96286.63;4986101;28;20227;-88
2021/09/18 08:02:57;;;;;;;14.30;9.55;;;;;;;14.52;94.29;96278.66;4986835;28;20219;-88
2021/09/18 08:05:24;;;;;;;16.55;10.65;;;;;;;14.97;93.29;96289.38;4986156;28;20214;-87
2021/09/18 08:07:50;;;;;;;17.98;11.07;;;;;;;15.25;91.58;96285.53;4986048;28;20306;-88
2021/09/18 08:10:17;;;;;;;17.33;10.68;;;;;;;14.96;93.23;96284.28;4986982;28;20226;-88
2021/09/18 08:12:47;;;;;;;17.92;11.60;;;;;;;15.11;94.16;96282.22;4987320;28;20218;-88
2021/09/18 08:15:15;;;;;;;21.30;12.43;;;;;;;15.57;92.84;96282.06;4986390;28;20213;-88
2021/09/18 08:17:42;;;;;;;19.95;13.00;;;;;;;15.68;92.21;96280.59;4986358;28;20219;-88
2021/09/18 08:20:10;;;;;;;22.55;13.02;;;;;;;15.97;91.42;96281.78;4986388;28;20700;-88
2021/09/18 08:22:37;;;;;;;20.75;12.85;;;;;;;15.87;90.74;96286.72;4986516;28;20470;-87
2021/09/18 08:25:04;;;;;;;21.00;13.02;;;;;;;16.04;89.06;96273.78;4985869;28;20206;-87
2021/09/18 08:27:31;;;;;;;20.48;12.45;;;;;;;15.90;89.59;96280.97;4986270;28;20257;-88
2021/09/18 08:29:58;;;;;;;21.92;12.65;;;;;;;16.11;89.73;96277.22;4985614;28;20200;-87
2021/09/18 08:32:26;;;;;;;27.08;12.60;;;;;;;16.27;89.15;96276.81;4985592;28;20598;-88
2021/09/18 08:34:52;;;;;;;22.80;12.98;;;;;;;16.30;88.00;96276.38;4985169;28;20201;-88
2021/09/18 08:37:19;;;;;;;25.02;12.73;;;;;;;16.50;87.83;96278.72;4985276;28;20222;-88
2021/09/18 08:39:46;;;;;;;19.25;12.73;;;;;;;16.69;86.22;96277.81;4985826;28;20227;-87
2021/09/18 08:42:13;;;;;;;21.33;14.02;;;;;;;16.62;87.83;96278.88;4984970;28;20200;-88
2021/09/18 08:44:39;;;;;;;22.58;13.25;;;;;;;16.80;87.42;96281.63;4985178;28;20210;-88
2021/09/18 08:47:06;;;;;;;23.08;12.65;;;;;;;17.05;86.70;96279.84;4984806;28;20231;-88
2021/09/18 08:49:34;;;;;;;18.05;12.35;;;;;;;17.29;85.33;96280.69;4985520;28;20215;-87
2021/09/18 08:52:02;;;;;;;20.88;12.70;;;;;;;17.37;86.59;96277.75;4985076;28;20203;-87
2021/09/18 08:54:29;;;;;;;19.25;12.48;;;;;;;17.28;86.46;96283.59;4984906;28;20215;-88
2021/09/18 08:56:56;;;;;;;18.00;12.15;;;;;;;17.45;85.42;96285.50;4985075;28;20219;-88
2021/09/18 08:59:22;;;;;;;17.90;12.40;;;;;;;17.54;84.09;96289.53;4985755;28;20589;-88
2021/09/18 09:02:08;;;;;;;23.08;13.13;;;;;;;17.95;84.36;96279.88;4985115;28;20195;-88
2021/09/18 09:04:36;;;;;;;20.02;11.82;;;;;;;17.92;83.86;96282.16;4985553;28;20668;-89
2021/09/18 09:07:04;;;;;;;17.17;11.15;;;;;;;17.98;82.45;96273.28;4985891;28;20405;-88
2021/09/18 09:09:51;;;;;;;18.85;12.40;;;;;;;18.18;82.62;96272.06;4984613;28;20211;-87
2021/09/18 09:12:24;;;;;;;15.68;10.52;;;;;;;18.42;80.41;96269.31;4985406;28;20660;-88
2021/09/18 09:14:51;;;;;;;18.33;10.80;;;;;;;18.33;80.44;96267.19;4986024;28;20584;-88
2021/09/18 09:17:23;;;;;;;19.10;11.95;;;;;;;18.40;80.96;96270.56;4985530;28;20929;-89
2021/09/18 09:19:52;;;;;;;18.75;11.50;;;;;;;18.50;80.53;96270.84;4986465;28;20676;-88
2021/09/18 09:22:44;;;;;;;19.63;11.48;;;;;;;18.81;79.43;96268.78;4986270;28;20203;-89
2021/09/18 09:25:28;;;;;;;19.33;11.65;;;;;;;18.97;79.38;96274.28;4985443;28;20660;-88
2021/09/18 09:27:56;;;;;;;18.63;12.13;;;;;;;18.81;78.72;96268.78;4985554;28;20227;-89
2021/09/18 09:30:27;;;;;;;21.17;11.85;;;;;;;19.10;78.49;96268.78;4985827;28;20202;-89
2021/09/18 09:32:54;;;;;;;15.93;11.05;;;;;;;19.04;77.68;96260.84;4986102;28;20195;-88
2021/09/18 09:35:22;;;;;;;16.08;11.13;;;;;;;19.38;77.29;96265.50;4985612;28;20210;-89
2021/09/18 09:37:52;;;;;;;18.23;10.93;;;;;;;19.49;79.03;96262.84;4985524;28;20223;-89
2021/09/18 09:40:31;;;;;;;18.55;11.48;;;;;;;19.81;78.51;96250.75;4986203;28;20231;-89
2021/09/18 09:42:57;;;;;;;7.75;5.35;;;;;;;19.27;68.50;96258.25;4990731;28;20218;-89
2021/09/18 09:45:24;;;;;;;8.65;5.85;;;;;;;19.66;68.63;96259.22;4990917;28;20211;-89
2021/09/18 09:48:02;;;;;;;9.90;5.70;;;;;;;20.02;68.40;96259.03;4995862;28;20718;-89
2021/09/18 09:50:31;;;;;;;7.20;4.93;;;;;;;20.18;67.43;96260.97;4994959;28;20211;-89
2021/09/18 09:52:58;;;;;;;7.05;4.68;;;;;;;19.99;65.21;96258.69;4993034;28;20596;-90
2021/09/18 09:55:25;;;;;;;6.85;4.97;;;;;;;19.94;67.18;96258.56;4990223;28;20202;-88
2021/09/18 09:57:58;;;;;;;6.05;4.55;;;;;;;20.26;64.57;96256.09;4992153;28;20222;-89
2021/09/18 10:00:35;;;;;;;8.73;5.25;;;;;;;19.70;67.61;96255.06;4991832;28;20273;-89
2021/09/18 10:03:02;;;;;;;8.30;5.75;;;;;;;20.12;68.42;96248.53;4992926;28;20695;-88
2021/09/18 10:05:30;;;;;;;10.07;4.68;;;;;;;20.67;65.13;96242.47;4993924;28;20207;-89
2021/09/18 10:07:57;;;;;;;6.70;4.60;;;;;;;20.60;64.84;96251.69;4992909;28;20223;-90
2021/09/18 10:10:24;;;;;;;5.57;3.22;;;;;;;20.71;60.88;96242.78;4993302;28;20206;-89
2021/09/18 10:12:51;;;;;;;4.30;3.38;;;;;;;20.90;65.50;96250.41;4990290;28;20195;-88
2021/09/18 10:15:18;;;;;;;5.78;3.80;;;;;;;21.03;61.48;96248.25;4993250;28;20226;-89
2021/09/18 10:17:48;;;;;;;5.90;3.92;;;;;;;20.98;61.42;96250.03;4995172;28;20231;-89
2021/09/18 10:23:13;;;;;;;7.75;4.40;;;;;;;20.76;59.44;96249.09;4994590;28;20274;-89
2021/09/18 10:23:17;;;;;;;11.02;4.35;;;;;;;20.82;59.37;96242.75;4993947;28;20250;-90
2021/09/18 10:25:47;;;;;;;6.53;4.40;;;;;;;21.00;59.74;96248.75;4993405;28;20203;-89
2021/09/18 10:28:16;;;;;;;6.93;4.43;;;;;;;21.26;60.94;96247.31;4995874;28;20680;-89
2021/09/18 10:30:45;;;;;;;5.10;3.72;;;;;;;21.21;59.19;96234.63;4995233;28;20202;-89
2021/09/18 10:33:33;;;;;;;5.38;3.92;;;;;;;21.63;60.02;96238.56;4993554;28;20218;-89
2021/09/18 10:36:01;;;;;;;7.03;4.38;;;;;;;21.66;61.39;96238.88;4989575;28;20202;-90
2021/09/18 10:38:32;;;;;;;7.20;4.25;;;;;;;21.68;57.76;96231.41;4992948;28;20726;-88
2021/09/18 10:41:01;;;;;;;7.00;4.13;;;;;;;21.55;56.76;96226.38;4995866;28;20215;-88
2021/09/18 10:43:30;;;;;;;4.57;3.35;;;;;;;21.64;59.16;96216.88;4994678;28;20199;-89
2021/09/18 10:45:57;;;;;;;6.40;3.83;;;;;;;21.00;60.64;96227.31;4990769;28;20676;-88
2021/09/18 10:48:39;;;;;;;4.50;3.20;;;;;;;21.68;57.30;96226.03;4993920;28;20225;-89
2021/09/18 10:51:06;;;;;;;4.97;2.97;;;;;;;21.58;57.70;96225.09;4994813;28;20212;-89
2021/09/18 10:54:04;;;;;;;3.65;2.97;;;;;;;21.77;59.69;96224.56;4993678;28;20199;-89
2021/09/18 10:56:56;;;;;;;5.60;3.03;;;;;;;21.76;57.78;96238.22;4990936;28;20229;-89
2021/09/18 10:59:42;;;;;;;4.00;3.00;;;;;;;21.85;57.75;96231.38;4992247;28;20203;-88
2021/09/18 11:02:54;;;;;;;4.38;2.60;;;;;;;21.67;58.34;96243.19;4991357;28;20210;-89
2021/09/18 11:05:46;;;;;;;4.25;2.65;;;;;;;21.96;51.66;96228.59;4991003;28;20209;-90
2021/09/18 11:08:31;;;;;;;2.55;2.03;;;;;;;22.06;55.40;96224.19;4990249;28;20712;-89
2021/09/18 11:11:02;;;;;;;2.78;2.10;;;;;;;22.01;52.22;96231.38;4990815;28;20199;-88
2021/09/18 11:13:34;;;;;;;3.67;2.38;;;;;;;21.86;55.77;96228.47;4995435;28;20214;-90
2021/09/18 11:16:04;;;;;;;3.67;2.80;;;;;;;22.04;55.04;96214.75;4993354;28;20199;-88
2021/09/18 11:18:35;;;;;;;5.25;3.38;;;;;;;22.16;54.98;96215.44;4991525;28;20305;-88
2021/09/18 11:21:18;;;;;;;4.53;3.00;;;;;;;22.28;52.88;96216.97;4990683;28;20227;-89
2021/09/18 11:23:47;;;;;;;5.75;3.10;;;;;;;21.97;52.72;96213.31;4988658;28;20265;-89
2021/09/18 11:26:42;;;;;;;3.85;2.65;;;;;;;22.34;50.58;96210.63;4994640;28;20207;-89
2021/09/18 11:29:10;;;;;;;5.28;3.05;;;;;;;21.74;53.84;96216.19;4994134;28;20279;-90
2021/09/18 11:31:37;;;;;;;5.25;3.75;;;;;;;22.04;53.76;96203.22;4994889;28;20207;-88
2021/09/18 11:34:04;;;;;;;10.23;4.07;;;;;;;22.27;55.65;96209.19;4995085;28;20207;-88
2021/09/18 11:36:31;;;;;;;5.80;3.28;;;;;;;22.14;56.26;96198.78;4991794;28;20213;-88